< < Back
Terminal Aerodrome Forecast


Current Version              Previous Versions:   1  2  3  4  5  6  7  8  9  

Terminal Aerodrome Forecast

132
FTUS44 KOHX 270500
TAFBNA
TAF
KBNA 270528Z 2706/2806 VRB04KT P6SM SKC
     FM271400 03010G18KT P6SM SKC
     FM280000 02004KT P6SM SKC=

Latest METAR

631
SAUS70 KWBC 280500 RRH
MTRBNA
METAR KBNA 280453Z 00000KT 10SM CLR 11/03 A3001 RMK AO2 PRESRR SLP160
T01110033


USA.gov is the U.S. government's official web portal to all federal, state and local government web resources and services.